<?xml version="1.0" encoding="UTF-8"?>
<gpx creator="Garmin Connect" version="1.1"
  xsi:schemaLocation="http://www.topografix.com/GPX/1/1 http://www.topografix.com/GPX/11.xsd"
  xmlns:ns3="http://www.garmin.com/xmlschemas/TrackPointExtension/v1"
  xmlns="http://www.topografix.com/GPX/1/1"
  xmlns:xsi="http://www.w3.org/2001/XMLSchema-instance" xmlns:ns2="http://www.garmin.com/xmlschemas/GpxExtensions/v3">
  <metadata>
    <link href="connect.garmin.com">
      <text>Garmin Connect</text>
    </link>
    <time>2023-07-02T07:27:56.000Z</time>
  </metadata>
  <trk>
    <name>Aalen Laufen</name>
    <type>running</type>
    <trkseg>
      <trkpt lat="48.8807821087539196014404296875" lon="10.13647547923028469085693359375">
        <ele>484</ele>
        <time>2023-07-02T07:27:56.000Z</time>
        <extensions>
          <ns3:TrackPointExtension>
            <ns3:hr>89</ns3:hr>
            <ns3:cad>0</ns3:cad>
          </ns3:TrackPointExtension>
        </extensions>
      </trkpt>
      <trkpt lat="48.880792669951915740966796875" lon="10.13647464103996753692626953125">
        <ele>484</ele>
        <time>2023-07-02T07:27:57.000Z</time>
        <extensions>
          <ns3:TrackPointExtension>
            <ns3:hr>89</ns3:hr>
            <ns3:cad>0</ns3:cad>
          </ns3:TrackPointExtension>
        </extensions>
      </trkpt>
      <trkpt lat="48.88075076043605804443359375" lon="10.136630125343799591064453125">
        <ele>484.20001220703125</ele>
        <time>2023-07-02T07:28:04.000Z</time>
        <extensions>
          <ns3:TrackPointExtension>
            <ns3:hr>86</ns3:hr>
            <ns3:cad>84</ns3:cad>
          </ns3:TrackPointExtension>
        </extensions>
      </trkpt>
      <trkpt lat="48.8807180710136890411376953125" lon="10.1367037184536457061767578125">
        <ele>484.399993896484375</ele>
        <time>2023-07-02T07:28:07.000Z</time>
        <extensions>
          <ns3:TrackPointExtension>
            <ns3:hr>90</ns3:hr>
            <ns3:cad>83</ns3:cad>
          </ns3:TrackPointExtension>
        </extensions>
      </trkpt>
      <trkpt lat="48.88070792891085147857666015625" lon="10.13672844506800174713134765625">
        <ele>484.600006103515625</ele>
        <time>2023-07-02T07:28:08.000Z</time>
        <extensions>
          <ns3:TrackPointExtension>
            <ns3:hr>93</ns3:hr>
            <ns3:cad>84</ns3:cad>
          </ns3:TrackPointExtension>
        </extensions>
      </trkpt>
      <trkpt lat="48.8806966133415699005126953125" lon="10.13675007037818431854248046875">
        <ele>484.600006103515625</ele>
        <time>2023-07-02T07:28:09.000Z</time>
        <extensions>
          <ns3:TrackPointExtension>
            <ns3:hr>96</ns3:hr>
            <ns3:cad>84</ns3:cad>
          </ns3:TrackPointExtension>
        </extensions>
      </trkpt>
      <trkpt lat="48.880668617784976959228515625" lon="10.13679382391273975372314453125">
        <ele>484.79998779296875</ele>
        <time>2023-07-02T07:28:11.000Z</time>
        <extensions>
          <ns3:TrackPointExtension>
            <ns3:hr>101</ns3:hr>
            <ns3:cad>83</ns3:cad>
          </ns3:TrackPointExtension>
        </extensions>
      </trkpt>
      <trkpt lat="48.88063701801002025604248046875" lon="10.13683036901056766510009765625">
        <ele>485</ele>
        <time>2023-07-02T07:28:13.000Z</time>
        <extensions>
          <ns3:TrackPointExtension>
            <ns3:hr>104</ns3:hr>
            <ns3:cad>82</ns3:cad>
          </ns3:TrackPointExtension>
        </extensions>
      </trkpt>
      <trkpt lat="48.88046803884208202362060546875" lon="10.1369364000856876373291015625">
        <ele>485.399993896484375</ele>
        <time>2023-07-02T07:28:22.000Z</time>
        <extensions>
          <ns3:TrackPointExtension>
            <ns3:hr>105</ns3:hr>
            <ns3:cad>83</ns3:cad>
          </ns3:TrackPointExtension>
        </extensions>
      </trkpt>
      <trkpt lat="48.88042621314525604248046875" lon="10.13695810921490192413330078125">
        <ele>485.399993896484375</ele>
        <time>2023-07-02T07:28:24.000Z</time>
        <extensions>
          <ns3:TrackPointExtension>
            <ns3:hr>110</ns3:hr>
            <ns3:cad>83</ns3:cad>
          </ns3:TrackPointExtension>
        </extensions>
      </trkpt>
      <trkpt lat="48.88040483929216861724853515625" lon="10.136967413127422332763671875">
        <ele>485.399993896484375</ele>
        <time>2023-07-02T07:28:25.000Z</time>
        <extensions>
          <ns3:TrackPointExtension>
            <ns3:hr>110</ns3:hr>
            <ns3:cad>83</ns3:cad>
          </ns3:TrackPointExtension>
        </extensions>
      </trkpt>
      <trkpt lat="48.88022898696362972259521484375" lon="10.13709138147532939910888671875">
        <ele>486</ele>
        <time>2023-07-02T07:28:35.000Z</time>
        <extensions>
          <ns3:TrackPointExtension>
            <ns3:hr>111</ns3:hr>
            <ns3:cad>83</ns3:cad>
          </ns3:TrackPointExtension>
        </extensions>
      </trkpt>
      <trkpt lat="48.88019177131354808807373046875" lon="10.13711233623325824737548828125">
        <ele>486</ele>
        <time>2023-07-02T07:28:37.000Z</time>
        <extensions>
          <ns3:TrackPointExtension>
            <ns3:hr>114</ns3:hr>
            <ns3:cad>83</ns3:cad>
          </ns3:TrackPointExtension>
        </extensions>
      </trkpt>
      <trkpt lat="48.88000644743442535400390625" lon="10.137196071445941925048828125">
        <ele>486</ele>
        <time>2023-07-02T07:28:46.000Z</time>
        <extensions>
          <ns3:TrackPointExtension>
            <ns3:hr>117</ns3:hr>
            <ns3:cad>83</ns3:cad>
          </ns3:TrackPointExtension>
        </extensions>
      </trkpt>
      <trkpt lat="48.8798305951058864593505859375" lon="10.1372922956943511962890625">
        <ele>486</ele>
        <time>2023-07-02T07:28:56.000Z</time>
        <extensions>
          <ns3:TrackPointExtension>
            <ns3:hr>118</ns3:hr>
            <ns3:cad>83</ns3:cad>
          </ns3:TrackPointExtension>
        </extensions>
      </trkpt>
      <trkpt lat="48.8797179423272609710693359375" lon="10.1373110711574554443359375">
        <ele>486.399993896484375</ele>
        <time>2023-07-02T07:29:02.000Z</time>
        <extensions>
          <ns3:TrackPointExtension>
            <ns3:hr>121</ns3:hr>
            <ns3:cad>84</ns3:cad>
          </ns3:TrackPointExtension>
        </extensions>
      </trkpt>
      <trkpt lat="48.8796632923185825347900390625" lon="10.137302689254283905029296875">
        <ele>486.79998779296875</ele>
        <time>2023-07-02T07:29:05.000Z</time>
        <extensions>
          <ns3:TrackPointExtension>
            <ns3:hr>124</ns3:hr>
            <ns3:cad>83</ns3:cad>
          </ns3:TrackPointExtension>
        </extensions>
      </trkpt>
      <trkpt lat="48.87946908362209796905517578125" lon="10.13728634454309940338134765625">
        <ele>488.20001220703125</ele>
        <time>2023-07-02T07:29:15.000Z</time>
        <extensions>
          <ns3:TrackPointExtension>
            <ns3:hr>127</ns3:hr>
            <ns3:cad>82</ns3:cad>
          </ns3:TrackPointExtension>
        </extensions>
      </trkpt>
      <trkpt lat="48.8792794011533260345458984375" lon="10.1372428424656391143798828125">
        <ele>489.79998779296875</ele>
        <time>2023-07-02T07:29:23.000Z</time>
        <extensions>
          <ns3:TrackPointExtension>
            <ns3:hr>128</ns3:hr>
            <ns3:cad>83</ns3:cad>
          </ns3:TrackPointExtension>
        </extensions>
      </trkpt>
      <trkpt lat="48.8791647367179393768310546875" lon="10.13701393269002437591552734375">
        <ele>489</ele>
        <time>2023-07-02T07:29:31.000Z</time>
        <extensions>
          <ns3:TrackPointExtension>
            <ns3:hr>130</ns3:hr>
            <ns3:cad>82</ns3:cad>
          </ns3:TrackPointExtension>
        </extensions>
      </trkpt>
      <trkpt lat="48.87910933233797550201416015625" lon="10.13674822635948657989501953125">
        <ele>489</ele>
        <time>2023-07-02T07:29:39.000Z</time>
        <extensions>
          <ns3:TrackPointExtension>
            <ns3:hr>131</ns3:hr>
            <ns3:cad>84</ns3:cad>
          </ns3:TrackPointExtension>
        </extensions>
      </trkpt>
      <trkpt lat="48.87905568815767765045166015625" lon="10.13646307401359081268310546875">
        <ele>489.600006103515625</ele>
        <time>2023-07-02T07:29:48.000Z</time>
        <extensions>
          <ns3:TrackPointExtension>
            <ns3:hr>133</ns3:hr>
            <ns3:cad>84</ns3:cad>
          </ns3:TrackPointExtension>
        </extensions>
      </trkpt>
      <trkpt lat="48.87902014888823032379150390625" lon="10.1361662708222866058349609375">
        <ele>490</ele>
        <time>2023-07-02T07:29:57.000Z</time>
        <extensions>
          <ns3:TrackPointExtension>
            <ns3:hr>133</ns3:hr>
            <ns3:cad>84</ns3:cad>
          </ns3:TrackPointExtension>
        </extensions>
      </trkpt>
      <trkpt lat="48.8791523315012454986572265625" lon="10.13597206212580204010009765625">
        <ele>490.20001220703125</ele>
        <time>2023-07-02T07:30:05.000Z</time>
        <extensions>
          <ns3:TrackPointExtension>
            <ns3:hr>133</ns3:hr>
            <ns3:cad>84</ns3:cad>
          </ns3:TrackPointExtension>
        </extensions>
      </trkpt>
      <trkpt lat="48.8793068937957286834716796875" lon="10.1358239538967609405517578125">
        <ele>489.79998779296875</ele>
        <time>2023-07-02T07:30:13.000Z</time>
        <extensions>
          <ns3:TrackPointExtension>
            <ns3:hr>134</ns3:hr>
            <ns3:cad>83</ns3:cad>
          </ns3:TrackPointExtension>
        </extensions>
      </trkpt>
      <trkpt lat="48.87948450632393360137939453125" lon="10.1357595808804035186767578125">
        <ele>489.20001220703125</ele>
        <time>2023-07-02T07:30:21.000Z</time>
        <extensions>
          <ns3:TrackPointExtension>
            <ns3:hr>135</ns3:hr>
            <ns3:cad>84</ns3:cad>
          </ns3:TrackPointExtension>
        </extensions>
      </trkpt>
      <trkpt lat="48.87960285879671573638916015625" lon="10.13569881208240985870361328125">
        <ele>488.399993896484375</ele>
        <time>2023-07-02T07:30:27.000Z</time>
        <extensions>
          <ns3:TrackPointExtension>
            <ns3:hr>132</ns3:hr>
            <ns3:cad>83</ns3:cad>
          </ns3:TrackPointExtension>
        </extensions>
      </trkpt>
      <trkpt lat="48.87969120405614376068115234375" lon="10.13549446128308773040771484375">
        <ele>487.399993896484375</ele>
        <time>2023-07-02T07:30:35.000Z</time>
        <extensions>
          <ns3:TrackPointExtension>
            <ns3:hr>135</ns3:hr>
            <ns3:cad>84</ns3:cad>
          </ns3:TrackPointExtension>
        </extensions>
      </trkpt>
      <trkpt lat="48.87983805499970912933349609375" lon="10.13534341938793659210205078125">
        <ele>487.399993896484375</ele>
        <time>2023-07-02T07:30:43.000Z</time>
        <extensions>
          <ns3:TrackPointExtension>
            <ns3:hr>138</ns3:hr>
            <ns3:cad>84</ns3:cad>
          </ns3:TrackPointExtension>
        </extensions>
      </trkpt>
      <trkpt lat="48.87993000447750091552734375" lon="10.1352496258914470672607421875">
        <ele>487.79998779296875</ele>
        <time>2023-07-02T07:30:48.000Z</time>
        <extensions>
          <ns3:TrackPointExtension>
            <ns3:hr>135</ns3:hr>
            <ns3:cad>84</ns3:cad>
          </ns3:TrackPointExtension>
        </extensions>
      </trkpt>
      <trkpt lat="48.8800619356334209442138671875" lon="10.13511392287909984588623046875">
        <ele>488</ele>
        <time>2023-07-02T07:30:55.000Z</time>
        <extensions>
          <ns3:TrackPointExtension>
            <ns3:hr>138</ns3:hr>
            <ns3:cad>85</ns3:cad>
          </ns3:TrackPointExtension>
        </extensions>
      </trkpt>
      <trkpt lat="48.88022504746913909912109375" lon="10.13495785184204578399658203125">
        <ele>488.399993896484375</ele>
        <time>2023-07-02T07:31:04.000Z</time>
        <extensions>
          <ns3:TrackPointExtension>
            <ns3:hr>139</ns3:hr>
            <ns3:cad>85</ns3:cad>
          </ns3:TrackPointExtension>
        </extensions>
      </trkpt>
      <trkpt lat="48.88027575798332691192626953125" lon="10.134900771081447601318359375">
        <ele>488.600006103515625</ele>
        <time>2023-07-02T07:31:07.000Z</time>
        <extensions>
          <ns3:TrackPointExtension>
            <ns3:hr>142</ns3:hr>
            <ns3:cad>83</ns3:cad>
          </ns3:TrackPointExtension>
        </extensions>
      </trkpt>
      <trkpt lat="48.88031087815761566162109375" lon="10.13486129231750965118408203125">
        <ele>488.600006103515625</ele>
        <time>2023-07-02T07:31:09.000Z</time>
        <extensions>
          <ns3:TrackPointExtension>
            <ns3:hr>139</ns3:hr>
            <ns3:cad>84</ns3:cad>
          </ns3:TrackPointExtension>
        </extensions>
      </trkpt>
      <trkpt lat="48.88034214265644550323486328125" lon="10.134818293154239654541015625">
        <ele>488.600006103515625</ele>
        <time>2023-07-02T07:31:11.000Z</time>
        <extensions>
          <ns3:TrackPointExtension>
            <ns3:hr>142</ns3:hr>
            <ns3:cad>84</ns3:cad>
          </ns3:TrackPointExtension>
        </extensions>
      </trkpt>
      <trkpt lat="48.880433253943920135498046875" lon="10.13467705808579921722412109375">
        <ele>488.20001220703125</ele>
        <time>2023-07-02T07:31:17.000Z</time>
        <extensions>
          <ns3:TrackPointExtension>
            <ns3:hr>138</ns3:hr>
            <ns3:cad>82</ns3:cad>
          </ns3:TrackPointExtension>
        </extensions>
      </trkpt>
      <trkpt lat="48.8805541209876537322998046875" lon="10.13446449302136898040771484375">
        <ele>488</ele>
        <time>2023-07-02T07:31:26.000Z</time>
        <extensions>
          <ns3:TrackPointExtension>
            <ns3:hr>138</ns3:hr>
            <ns3:cad>82</ns3:cad>
          </ns3:TrackPointExtension>
        </extensions>
      </trkpt>
      <trkpt lat="48.880673311650753021240234375" lon="10.13425393961369991302490234375">
        <ele>488</ele>
        <time>2023-07-02T07:31:35.000Z</time>
        <extensions>
          <ns3:TrackPointExtension>
            <ns3:hr>136</ns3:hr>
            <ns3:cad>82</ns3:cad>
          </ns3:TrackPointExtension>
        </extensions>
      </trkpt>
      <trkpt lat="48.8807975314557552337646484375" lon="10.13402913697063922882080078125">
        <ele>488.399993896484375</ele>
        <time>2023-07-02T07:31:44.000Z</time>
        <extensions>
          <ns3:TrackPointExtension>
            <ns3:hr>138</ns3:hr>
            <ns3:cad>82</ns3:cad>
          </ns3:TrackPointExtension>
        </extensions>
      </trkpt>
      <trkpt lat="48.88095821253955364227294921875" lon="10.13384741730988025665283203125">
        <ele>489.20001220703125</ele>
        <time>2023-07-02T07:31:53.000Z</time>
        <extensions>
          <ns3:TrackPointExtension>
            <ns3:hr>139</ns3:hr>
            <ns3:cad>83</ns3:cad>
          </ns3:TrackPointExtension>
        </extensions>
      </trkpt>
      <trkpt lat="48.88106994330883026123046875" lon="10.13376845978200435638427734375">
        <ele>489.79998779296875</ele>
        <time>2023-07-02T07:31:59.000Z</time>
        <extensions>
          <ns3:TrackPointExtension>
            <ns3:hr>136</ns3:hr>
            <ns3:cad>83</ns3:cad>
          </ns3:TrackPointExtension>
        </extensions>
      </trkpt>
      <trkpt lat="48.8812597095966339111328125" lon="10.13377365656197071075439453125">
        <ele>490.79998779296875</ele>
        <time>2023-07-02T07:32:08.000Z</time>
        <extensions>
          <ns3:TrackPointExtension>
            <ns3:hr>137</ns3:hr>
            <ns3:cad>83</ns3:cad>
          </ns3:TrackPointExtension>
        </extensions>
      </trkpt>
      <trkpt lat="48.88145995326340198516845703125" lon="10.13382889330387115478515625">
        <ele>490.20001220703125</ele>
        <time>2023-07-02T07:32:16.000Z</time>
        <extensions>
          <ns3:TrackPointExtension>
            <ns3:hr>137</ns3:hr>
            <ns3:cad>84</ns3:cad>
          </ns3:TrackPointExtension>
        </extensions>
      </trkpt>
      <trkpt lat="48.88162650167942047119140625" lon="10.13398236595094203948974609375">
        <ele>489.79998779296875</ele>
        <time>2023-07-02T07:32:24.000Z</time>
        <extensions>
          <ns3:TrackPointExtension>
            <ns3:hr>137</ns3:hr>
            <ns3:cad>83</ns3:cad>
          </ns3:TrackPointExtension>
        </extensions>
      </trkpt>
      <trkpt lat="48.8817894458770751953125" lon="10.13414832763373851776123046875">
        <ele>488.600006103515625</ele>
        <time>2023-07-02T07:32:32.000Z</time>
        <extensions>
          <ns3:TrackPointExtension>
            <ns3:hr>140</ns3:hr>
            <ns3:cad>82</ns3:cad>
          </ns3:TrackPointExtension>
        </extensions>
      </trkpt>
      <trkpt lat="48.88192011974751949310302734375" lon="10.13433516025543212890625">
        <ele>487</ele>
        <time>2023-07-02T07:32:39.000Z</time>
        <extensions>
          <ns3:TrackPointExtension>
            <ns3:hr>137</ns3:hr>
            <ns3:cad>82</ns3:cad>
          </ns3:TrackPointExtension>
        </extensions>
      </trkpt>
      <trkpt lat="48.882040567696094512939453125" lon="10.13457647524774074554443359375">
        <ele>486</ele>
        <time>2023-07-02T07:32:47.000Z</time>
        <extensions>
          <ns3:TrackPointExtension>
            <ns3:hr>139</ns3:hr>
            <ns3:cad>82</ns3:cad>
          </ns3:TrackPointExtension>
        </extensions>
      </trkpt>
      <trkpt lat="48.88213385827839374542236328125" lon="10.13479943387210369110107421875">
        <ele>485</ele>
        <time>2023-07-02T07:32:54.000Z</time>
        <extensions>
          <ns3:TrackPointExtension>
            <ns3:hr>134</ns3:hr>
            <ns3:cad>82</ns3:cad>
          </ns3:TrackPointExtension>
        </extensions>
      </trkpt>
      <trkpt lat="48.8821460120379924774169921875" lon="10.13483195565640926361083984375">
        <ele>484.79998779296875</ele>
        <time>2023-07-02T07:32:55.000Z</time>
        <extensions>
          <ns3:TrackPointExtension>
            <ns3:hr>134</ns3:hr>
            <ns3:cad>82</ns3:cad>
          </ns3:TrackPointExtension>
        </extensions>
      </trkpt>
      <trkpt lat="48.88222723267972469329833984375" lon="10.13508358038961887359619140625">
        <ele>483</ele>
        <time>2023-07-02T07:33:03.000Z</time>
        <extensions>
          <ns3:TrackPointExtension>
            <ns3:hr>135</ns3:hr>
            <ns3:cad>81</ns3:cad>
          </ns3:TrackPointExtension>
        </extensions>
      </trkpt>
      <trkpt lat="48.88225221075117588043212890625" lon="10.1351792179048061370849609375">
        <ele>482.600006103515625</ele>
        <time>2023-07-02T07:33:06.000Z</time>
        <extensions>
          <ns3:TrackPointExtension>
            <ns3:hr>132</ns3:hr>
            <ns3:cad>81</ns3:cad>
          </ns3:TrackPointExtension>
        </extensions>
      </trkpt>
      <trkpt lat="48.8823287375271320343017578125" lon="10.13543729670345783233642578125">
        <ele>481</ele>
        <time>2023-07-02T07:33:14.000Z</time>
        <extensions>
          <ns3:TrackPointExtension>
            <ns3:hr>132</ns3:hr>
            <ns3:cad>82</ns3:cad>
          </ns3:TrackPointExtension>
        </extensions>
      </trkpt>
      <trkpt lat="48.8823688030242919921875" lon="10.135598480701446533203125">
        <ele>480.399993896484375</ele>
        <time>2023-07-02T07:33:19.000Z</time>
        <extensions>
          <ns3:TrackPointExtension>
            <ns3:hr>129</ns3:hr>
            <ns3:cad>82</ns3:cad>
          </ns3:TrackPointExtension>
        </extensions>
      </trkpt>
      <trkpt lat="48.882356397807598114013671875" lon="10.1358128897845745086669921875">
        <ele>479.79998779296875</ele>
        <time>2023-07-02T07:33:25.000Z</time>
        <extensions>
          <ns3:TrackPointExtension>
            <ns3:hr>132</ns3:hr>
            <ns3:cad>82</ns3:cad>
          </ns3:TrackPointExtension>
        </extensions>
      </trkpt>
      <trkpt lat="48.882197476923465728759765625" lon="10.13595328666269779205322265625">
        <ele>480.399993896484375</ele>
        <time>2023-07-02T07:33:32.000Z</time>
        <extensions>
          <ns3:TrackPointExtension>
            <ns3:hr>130</ns3:hr>
            <ns3:cad>82</ns3:cad>
          </ns3:TrackPointExtension>
        </extensions>
      </trkpt>
      <trkpt lat="48.88211055658757686614990234375" lon="10.136005170643329620361328125">
        <ele>480.79998779296875</ele>
        <time>2023-07-02T07:33:36.000Z</time>
        <extensions>
          <ns3:TrackPointExtension>
            <ns3:hr>127</ns3:hr>
            <ns3:cad>83</ns3:cad>
          </ns3:TrackPointExtension>
        </extensions>
      </trkpt>
      <trkpt lat="48.8820709101855754852294921875" lon="10.136027634143829345703125">
        <ele>481</ele>
        <time>2023-07-02T07:33:38.000Z</time>
        <extensions>
          <ns3:TrackPointExtension>
            <ns3:hr>124</ns3:hr>
            <ns3:cad>83</ns3:cad>
          </ns3:TrackPointExtension>
        </extensions>
      </trkpt>
      <trkpt lat="48.88193135149776935577392578125" lon="10.1360901631414890289306640625">
        <ele>481.399993896484375</ele>
        <time>2023-07-02T07:33:44.000Z</time>
        <extensions>
          <ns3:TrackPointExtension>
            <ns3:hr>129</ns3:hr>
            <ns3:cad>82</ns3:cad>
          </ns3:TrackPointExtension>
        </extensions>
      </trkpt>
      <trkpt lat="48.88175164349377155303955078125" lon="10.13614271767437458038330078125">
        <ele>481.600006103515625</ele>
        <time>2023-07-02T07:33:52.000Z</time>
        <extensions>
          <ns3:TrackPointExtension>
            <ns3:hr>130</ns3:hr>
            <ns3:cad>83</ns3:cad>
          </ns3:TrackPointExtension>
        </extensions>
      </trkpt>
      <trkpt lat="48.88156975619494915008544921875" lon="10.1361937634646892547607421875">
        <ele>482</ele>
        <time>2023-07-02T07:34:00.000Z</time>
        <extensions>
          <ns3:TrackPointExtension>
            <ns3:hr>132</ns3:hr>
            <ns3:cad>84</ns3:cad>
          </ns3:TrackPointExtension>
        </extensions>
      </trkpt>
      <trkpt lat="48.88138912618160247802734375" lon="10.1362400315701961517333984375">
        <ele>482.600006103515625</ele>
        <time>2023-07-02T07:34:08.000Z</time>
        <extensions>
          <ns3:TrackPointExtension>
            <ns3:hr>133</ns3:hr>
            <ns3:cad>84</ns3:cad>
          </ns3:TrackPointExtension>
        </extensions>
      </trkpt>
      <trkpt lat="48.88120614923536777496337890625" lon="10.1362826116383075714111328125">
        <ele>483</ele>
        <time>2023-07-02T07:34:16.000Z</time>
        <extensions>
          <ns3:TrackPointExtension>
            <ns3:hr>134</ns3:hr>
            <ns3:cad>84</ns3:cad>
          </ns3:TrackPointExtension>
        </extensions>
      </trkpt>
      <trkpt lat="48.881014622747898101806640625" lon="10.13632846064865589141845703125">
        <ele>483.79998779296875</ele>
        <time>2023-07-02T07:34:25.000Z</time>
        <extensions>
          <ns3:TrackPointExtension>
            <ns3:hr>135</ns3:hr>
            <ns3:cad>83</ns3:cad>
          </ns3:TrackPointExtension>
        </extensions>
      </trkpt>
      <trkpt lat="48.88090507127344608306884765625" lon="10.136422254145145416259765625">
        <ele>484</ele>
        <time>2023-07-02T07:34:31.000Z</time>
        <extensions>
          <ns3:TrackPointExtension>
            <ns3:hr>138</ns3:hr>
            <ns3:cad>83</ns3:cad>
          </ns3:TrackPointExtension>
        </extensions>
      </trkpt>
      <trkpt lat="48.88077557086944580078125" lon="10.1366271078586578369140625">
        <ele>484.20001220703125</ele>
        <time>2023-07-02T07:34:39.000Z</time>
        <extensions>
          <ns3:TrackPointExtension>
            <ns3:hr>139</ns3:hr>
            <ns3:cad>83</ns3:cad>
          </ns3:TrackPointExtension>
        </extensions>
      </trkpt>
      <trkpt lat="48.8807204179465770721435546875" lon="10.13671603985130786895751953125">
        <ele>484.600006103515625</ele>
        <time>2023-07-02T07:34:43.000Z</time>
        <extensions>
          <ns3:TrackPointExtension>
            <ns3:hr>140</ns3:hr>
            <ns3:cad>84</ns3:cad>
          </ns3:TrackPointExtension>
        </extensions>
      </trkpt>
      <trkpt lat="48.88056166470050811767578125" lon="10.1368965022265911102294921875">
        <ele>485.20001220703125</ele>
        <time>2023-07-02T07:34:52.000Z</time>
        <extensions>
          <ns3:TrackPointExtension>
            <ns3:hr>140</ns3:hr>
            <ns3:cad>83</ns3:cad>
          </ns3:TrackPointExtension>
        </extensions>
      </trkpt>
      <trkpt lat="48.8803871534764766693115234375" lon="10.1370041258633136749267578125">
        <ele>485.600006103515625</ele>
        <time>2023-07-02T07:35:00.000Z</time>
        <extensions>
          <ns3:TrackPointExtension>
            <ns3:hr>141</ns3:hr>
            <ns3:cad>83</ns3:cad>
          </ns3:TrackPointExtension>
        </extensions>
      </trkpt>
      <trkpt lat="48.8802216947078704833984375" lon="10.1371452771127223968505859375">
        <ele>486.20001220703125</ele>
        <time>2023-07-02T07:35:09.000Z</time>
        <extensions>
          <ns3:TrackPointExtension>
            <ns3:hr>141</ns3:hr>
            <ns3:cad>84</ns3:cad>
          </ns3:TrackPointExtension>
        </extensions>
      </trkpt>
      <trkpt lat="48.8800699822604656219482421875" lon="10.13719062320888042449951171875">
        <ele>486</ele>
        <time>2023-07-02T07:35:16.000Z</time>
        <extensions>
          <ns3:TrackPointExtension>
            <ns3:hr>144</ns3:hr>
            <ns3:cad>84</ns3:cad>
          </ns3:TrackPointExtension>
        </extensions>
      </trkpt>
      <trkpt lat="48.879884071648120880126953125" lon="10.13726321049034595489501953125">
        <ele>486</ele>
        <time>2023-07-02T07:35:24.000Z</time>
        <extensions>
          <ns3:TrackPointExtension>
            <ns3:hr>141</ns3:hr>
            <ns3:cad>84</ns3:cad>
          </ns3:TrackPointExtension>
        </extensions>
      </trkpt>
      <trkpt lat="48.87977502308785915374755859375" lon="10.137314088642597198486328125">
        <ele>486.20001220703125</ele>
        <time>2023-07-02T07:35:29.000Z</time>
        <extensions>
          <ns3:TrackPointExtension>
            <ns3:hr>144</ns3:hr>
            <ns3:cad>84</ns3:cad>
          </ns3:TrackPointExtension>
        </extensions>
      </trkpt>
      <trkpt lat="48.87959045358002185821533203125" lon="10.1373095624148845672607421875">
        <ele>487.399993896484375</ele>
        <time>2023-07-02T07:35:38.000Z</time>
        <extensions>
          <ns3:TrackPointExtension>
            <ns3:hr>143</ns3:hr>
            <ns3:cad>83</ns3:cad>
          </ns3:TrackPointExtension>
        </extensions>
      </trkpt>
      <trkpt lat="48.87944142334163188934326171875" lon="10.137290619313716888427734375">
        <ele>488.399993896484375</ele>
        <time>2023-07-02T07:35:45.000Z</time>
        <extensions>
          <ns3:TrackPointExtension>
            <ns3:hr>145</ns3:hr>
            <ns3:cad>84</ns3:cad>
          </ns3:TrackPointExtension>
        </extensions>
      </trkpt>
      <trkpt lat="48.87925081886351108551025390625" lon="10.13721945695579051971435546875">
        <ele>489.79998779296875</ele>
        <time>2023-07-02T07:35:53.000Z</time>
        <extensions>
          <ns3:TrackPointExtension>
            <ns3:hr>144</ns3:hr>
            <ns3:cad>83</ns3:cad>
          </ns3:TrackPointExtension>
        </extensions>
      </trkpt>
      <trkpt lat="48.87921117246150970458984375" lon="10.13716246001422405242919921875">
        <ele>489.600006103515625</ele>
        <time>2023-07-02T07:35:55.000Z</time>
        <extensions>
          <ns3:TrackPointExtension>
            <ns3:hr>145</ns3:hr>
            <ns3:cad>83</ns3:cad>
          </ns3:TrackPointExtension>
        </extensions>
      </trkpt>
      <trkpt lat="48.8791580311954021453857421875" lon="10.13699616305530071258544921875">
        <ele>489</ele>
        <time>2023-07-02T07:36:00.000Z</time>
        <extensions>
          <ns3:TrackPointExtension>
            <ns3:hr>146</ns3:hr>
            <ns3:cad>83</ns3:cad>
          </ns3:TrackPointExtension>
        </extensions>
      </trkpt>
      <trkpt lat="48.879126347601413726806640625" lon="10.13685719110071659088134765625">
        <ele>489</ele>
        <time>2023-07-02T07:36:04.000Z</time>
        <extensions>
          <ns3:TrackPointExtension>
            <ns3:hr>149</ns3:hr>
            <ns3:cad>84</ns3:cad>
          </ns3:TrackPointExtension>
        </extensions>
      </trkpt>
      <trkpt lat="48.87911737896502017974853515625" lon="10.13682089745998382568359375">
        <ele>489</ele>
        <time>2023-07-02T07:36:05.000Z</time>
        <extensions>
          <ns3:TrackPointExtension>
            <ns3:hr>150</ns3:hr>
            <ns3:cad>84</ns3:cad>
          </ns3:TrackPointExtension>
        </extensions>
      </trkpt>
      <trkpt lat="48.87909558601677417755126953125" lon="10.136715956032276153564453125">
        <ele>489</ele>
        <time>2023-07-02T07:36:08.000Z</time>
        <extensions>
          <ns3:TrackPointExtension>
            <ns3:hr>147</ns3:hr>
            <ns3:cad>83</ns3:cad>
          </ns3:TrackPointExtension>
        </extensions>
      </trkpt>
      <trkpt lat="48.87905426323413848876953125" lon="10.13643256388604640960693359375">
        <ele>489.600006103515625</ele>
        <time>2023-07-02T07:36:16.000Z</time>
        <extensions>
          <ns3:TrackPointExtension>
            <ns3:hr>147</ns3:hr>
            <ns3:cad>83</ns3:cad>
          </ns3:TrackPointExtension>
        </extensions>
      </trkpt>
      <trkpt lat="48.8790212385356426239013671875" lon="10.1361592300236225128173828125">
        <ele>490</ele>
        <time>2023-07-02T07:36:24.000Z</time>
        <extensions>
          <ns3:TrackPointExtension>
            <ns3:hr>149</ns3:hr>
            <ns3:cad>82</ns3:cad>
          </ns3:TrackPointExtension>
        </extensions>
      </trkpt>
      <trkpt lat="48.8790353201329708099365234375" lon="10.13613081537187099456787109375">
        <ele>490</ele>
        <time>2023-07-02T07:36:25.000Z</time>
        <extensions>
          <ns3:TrackPointExtension>
            <ns3:hr>149</ns3:hr>
            <ns3:cad>82</ns3:cad>
          </ns3:TrackPointExtension>
        </extensions>
      </trkpt>
      <trkpt lat="48.87919315136969089508056640625" lon="10.13599611818790435791015625">
        <ele>490</ele>
        <time>2023-07-02T07:36:33.000Z</time>
        <extensions>
          <ns3:TrackPointExtension>
            <ns3:hr>150</ns3:hr>
            <ns3:cad>83</ns3:cad>
          </ns3:TrackPointExtension>
        </extensions>
      </trkpt>
      <trkpt lat="48.8793568499386310577392578125" lon="10.13582068495452404022216796875">
        <ele>489.600006103515625</ele>
        <time>2023-07-02T07:36:41.000Z</time>
        <extensions>
          <ns3:TrackPointExtension>
            <ns3:hr>150</ns3:hr>
            <ns3:cad>82</ns3:cad>
          </ns3:TrackPointExtension>
        </extensions>
      </trkpt>
      <trkpt lat="48.87955122627317905426025390625" lon="10.1357491873204708099365234375">
        <ele>489</ele>
        <time>2023-07-02T07:36:49.000Z</time>
        <extensions>
          <ns3:TrackPointExtension>
            <ns3:hr>150</ns3:hr>
            <ns3:cad>83</ns3:cad>
          </ns3:TrackPointExtension>
        </extensions>
      </trkpt>
      <trkpt lat="48.8796917907893657684326171875" lon="10.13561029918491840362548828125">
        <ele>487.600006103515625</ele>
        <time>2023-07-02T07:36:57.000Z</time>
        <extensions>
          <ns3:TrackPointExtension>
            <ns3:hr>149</ns3:hr>
            <ns3:cad>84</ns3:cad>
          </ns3:TrackPointExtension>
        </extensions>
      </trkpt>
      <trkpt lat="48.87978709302842617034912109375" lon="10.13544064946472644805908203125">
        <ele>487.20001220703125</ele>
        <time>2023-07-02T07:37:03.000Z</time>
        <extensions>
          <ns3:TrackPointExtension>
            <ns3:hr>153</ns3:hr>
            <ns3:cad>86</ns3:cad>
          </ns3:TrackPointExtension>
        </extensions>
      </trkpt>
      <trkpt lat="48.87993796728551387786865234375" lon="10.13529614545404911041259765625">
        <ele>487.600006103515625</ele>
        <time>2023-07-02T07:37:10.000Z</time>
        <extensions>
          <ns3:TrackPointExtension>
            <ns3:hr>150</ns3:hr>
            <ns3:cad>86</ns3:cad>
          </ns3:TrackPointExtension>
        </extensions>
      </trkpt>
      <trkpt lat="48.88000133447349071502685546875" lon="10.135230682790279388427734375">
        <ele>487.79998779296875</ele>
        <time>2023-07-02T07:37:13.000Z</time>
        <extensions>
          <ns3:TrackPointExtension>
            <ns3:hr>153</ns3:hr>
            <ns3:cad>86</ns3:cad>
          </ns3:TrackPointExtension>
        </extensions>
      </trkpt>
      <trkpt lat="48.8801571540534496307373046875" lon="10.13508039526641368865966796875">
        <ele>488.20001220703125</ele>
        <time>2023-07-02T07:37:20.000Z</time>
        <extensions>
          <ns3:TrackPointExtension>
            <ns3:hr>153</ns3:hr>
            <ns3:cad>84</ns3:cad>
          </ns3:TrackPointExtension>
        </extensions>
      </trkpt>
      <trkpt lat="48.88030861504375934600830078125" lon="10.1348928920924663543701171875">
        <ele>488.79998779296875</ele>
        <time>2023-07-02T07:37:28.000Z</time>
        <extensions>
          <ns3:TrackPointExtension>
            <ns3:hr>154</ns3:hr>
            <ns3:cad>85</ns3:cad>
          </ns3:TrackPointExtension>
        </extensions>
      </trkpt>
      <trkpt lat="48.88044876046478748321533203125" lon="10.134707987308502197265625">
        <ele>488.399993896484375</ele>
        <time>2023-07-02T07:37:36.000Z</time>
        <extensions>
          <ns3:TrackPointExtension>
            <ns3:hr>153</ns3:hr>
            <ns3:cad>85</ns3:cad>
          </ns3:TrackPointExtension>
        </extensions>
      </trkpt>
      <trkpt lat="48.88055554591119289398193359375" lon="10.13447823934257030487060546875">
        <ele>488.20001220703125</ele>
        <time>2023-07-02T07:37:44.000Z</time>
        <extensions>
          <ns3:TrackPointExtension>
            <ns3:hr>153</ns3:hr>
            <ns3:cad>84</ns3:cad>
          </ns3:TrackPointExtension>
        </extensions>
      </trkpt>
      <trkpt lat="48.880690075457096099853515625" lon="10.13425595127046108245849609375">
        <ele>488.20001220703125</ele>
        <time>2023-07-02T07:37:52.000Z</time>
        <extensions>
          <ns3:TrackPointExtension>
            <ns3:hr>153</ns3:hr>
            <ns3:cad>86</ns3:cad>
          </ns3:TrackPointExtension>
        </extensions>
      </trkpt>
      <trkpt lat="48.88081102631986141204833984375" lon="10.13405344448983669281005859375">
        <ele>488.399993896484375</ele>
        <time>2023-07-02T07:37:59.000Z</time>
        <extensions>
          <ns3:TrackPointExtension>
            <ns3:hr>155</ns3:hr>
            <ns3:cad>85</ns3:cad>
          </ns3:TrackPointExtension>
        </extensions>
      </trkpt>
      <trkpt lat="48.88082862831652164459228515625" lon="10.13402595184743404388427734375">
        <ele>488.399993896484375</ele>
        <time>2023-07-02T07:38:00.000Z</time>
        <extensions>
          <ns3:TrackPointExtension>
            <ns3:hr>155</ns3:hr>
            <ns3:cad>85</ns3:cad>
          </ns3:TrackPointExtension>
        </extensions>
      </trkpt>
      <trkpt lat="48.8809668458998203277587890625" lon="10.1338448189198970794677734375">
        <ele>489.20001220703125</ele>
        <time>2023-07-02T07:38:07.000Z</time>
        <extensions>
          <ns3:TrackPointExtension>
            <ns3:hr>156</ns3:hr>
            <ns3:cad>84</ns3:cad>
          </ns3:TrackPointExtension>
        </extensions>
      </trkpt>
      <trkpt lat="48.88103448785841464996337890625" lon="10.13377927243709564208984375">
        <ele>489.600006103515625</ele>
        <time>2023-07-02T07:38:10.000Z</time>
        <extensions>
          <ns3:TrackPointExtension>
            <ns3:hr>153</ns3:hr>
            <ns3:cad>85</ns3:cad>
          </ns3:TrackPointExtension>
        </extensions>
      </trkpt>
      <trkpt lat="48.8812129385769367218017578125" lon="10.13373761437833309173583984375">
        <ele>490.79998779296875</ele>
        <time>2023-07-02T07:38:18.000Z</time>
        <extensions>
          <ns3:TrackPointExtension>
            <ns3:hr>153</ns3:hr>
            <ns3:cad>86</ns3:cad>
          </ns3:TrackPointExtension>
        </extensions>
      </trkpt>
      <trkpt lat="48.88139205984771251678466796875" lon="10.1337211020290851593017578125">
        <ele>490.20001220703125</ele>
        <time>2023-07-02T07:38:26.000Z</time>
        <extensions>
          <ns3:TrackPointExtension>
            <ns3:hr>153</ns3:hr>
            <ns3:cad>83</ns3:cad>
          </ns3:TrackPointExtension>
        </extensions>
      </trkpt>
      <trkpt lat="48.88149909675121307373046875" lon="10.13350174762308597564697265625">
        <ele>489</ele>
        <time>2023-07-02T07:38:33.000Z</time>
        <extensions>
          <ns3:TrackPointExtension>
            <ns3:hr>155</ns3:hr>
            <ns3:cad>84</ns3:cad>
          </ns3:TrackPointExtension>
        </extensions>
      </trkpt>
      <trkpt lat="48.8815891183912754058837890625" lon="10.1332550682127475738525390625">
        <ele>487.399993896484375</ele>
        <time>2023-07-02T07:38:40.000Z</time>
        <extensions>
          <ns3:TrackPointExtension>
            <ns3:hr>156</ns3:hr>
            <ns3:cad>85</ns3:cad>
          </ns3:TrackPointExtension>
        </extensions>
      </trkpt>
      <trkpt lat="48.8816843368113040924072265625" lon="10.13308516703546047210693359375">
        <ele>486.20001220703125</ele>
        <time>2023-07-02T07:38:46.000Z</time>
        <extensions>
          <ns3:TrackPointExtension>
            <ns3:hr>159</ns3:hr>
            <ns3:cad>82</ns3:cad>
          </ns3:TrackPointExtension>
        </extensions>
      </trkpt>
      <trkpt lat="48.88174426741898059844970703125" lon="10.1329777948558330535888671875">
        <ele>485.20001220703125</ele>
        <time>2023-07-02T07:38:50.000Z</time>
        <extensions>
          <ns3:TrackPointExtension>
            <ns3:hr>160</ns3:hr>
            <ns3:cad>82</ns3:cad>
          </ns3:TrackPointExtension>
        </extensions>
      </trkpt>
      <trkpt lat="48.8818627037107944488525390625" lon="10.13275408186018466949462890625">
        <ele>483</ele>
        <time>2023-07-02T07:38:58.000Z</time>
        <extensions>
          <ns3:TrackPointExtension>
            <ns3:hr>161</ns3:hr>
            <ns3:cad>80</ns3:cad>
          </ns3:TrackPointExtension>
        </extensions>
      </trkpt>
      <trkpt lat="48.88190947473049163818359375" lon="10.132506899535655975341796875">
        <ele>481.20001220703125</ele>
        <time>2023-07-02T07:39:08.000Z</time>
        <extensions>
          <ns3:TrackPointExtension>
            <ns3:hr>166</ns3:hr>
            <ns3:cad>77</ns3:cad>
          </ns3:TrackPointExtension>
        </extensions>
      </trkpt>
      <trkpt lat="48.88192665763199329376220703125" lon="10.132478736340999603271484375">
        <ele>481</ele>
        <time>2023-07-02T07:39:10.000Z</time>
        <extensions>
          <ns3:TrackPointExtension>
            <ns3:hr>169</ns3:hr>
            <ns3:cad>59</ns3:cad>
          </ns3:TrackPointExtension>
        </extensions>
      </trkpt>
      <trkpt lat="48.881949372589588165283203125" lon="10.1324561052024364471435546875">
        <ele>480.79998779296875</ele>
        <time>2023-07-02T07:39:12.000Z</time>
        <extensions>
          <ns3:TrackPointExtension>
            <ns3:hr>164</ns3:hr>
            <ns3:cad>59</ns3:cad>
          </ns3:TrackPointExtension>
        </extensions>
      </trkpt>
      <trkpt lat="48.88196337036788463592529296875" lon="10.132447220385074615478515625">
        <ele>480.600006103515625</ele>
        <time>2023-07-02T07:39:13.000Z</time>
        <extensions>
          <ns3:TrackPointExtension>
            <ns3:hr>164</ns3:hr>
            <ns3:cad>58</ns3:cad>
          </ns3:TrackPointExtension>
        </extensions>
      </trkpt>
      <trkpt lat="48.88197787106037139892578125" lon="10.13244110159575939178466796875">
        <ele>480.600006103515625</ele>
        <time>2023-07-02T07:39:14.000Z</time>
        <extensions>
          <ns3:TrackPointExtension>
            <ns3:hr>168</ns3:hr>
            <ns3:cad>57</ns3:cad>
          </ns3:TrackPointExtension>
        </extensions>
      </trkpt>
      <trkpt lat="48.88199036009609699249267578125" lon="10.13243950903415679931640625">
        <ele>480.600006103515625</ele>
        <time>2023-07-02T07:39:15.000Z</time>
        <extensions>
          <ns3:TrackPointExtension>
            <ns3:hr>167</ns3:hr>
            <ns3:cad>57</ns3:cad>
          </ns3:TrackPointExtension>
        </extensions>
      </trkpt>
    </trkseg>
  </trk>
</gpx>
